createdAt,value
2023-02-12T00:01:18.862Z,20.10
2023-02-12T00:03:46.021Z,23.00
2023-02-12T00:06:15.744Z,21.83
2023-02-12T00:08:43.216Z,22.17
2023-02-12T00:11:18.098Z,20.30
2023-02-12T00:13:45.115Z,21.43
2023-02-12T00:16:14.968Z,20.77
2023-02-12T00:18:41.861Z,21.47
2023-02-12T00:21:08.927Z,21.53
2023-02-12T00:23:36.391Z,22.13
2023-02-12T00:26:08.256Z,23.87
2023-02-12T00:28:35.806Z,22.33
2023-02-12T00:31:12.526Z,22.17
2023-02-12T00:33:39.677Z,22.73
2023-02-12T00:36:07.012Z,23.80
2023-02-12T00:38:34.402Z,21.23
2023-02-12T00:41:01.273Z,21.43
2023-02-12T00:43:27.950Z,20.40
2023-02-12T00:45:55.131Z,20.63
2023-02-12T00:48:21.972Z,20.70
2023-02-12T00:50:50.134Z,23.27
2023-02-12T00:53:17.403Z,21.67
2023-02-12T00:55:44.134Z,20.27
2023-02-12T00:58:11.237Z,21.37
2023-02-12T01:00:38.303Z,22.53
2023-02-12T01:03:05.600Z,22.17
2023-02-12T01:05:32.980Z,21.77
2023-02-12T01:07:59.650Z,22.10
2023-02-12T01:10:26.573Z,22.13
2023-02-12T01:12:53.321Z,20.83
2023-02-12T01:15:20.248Z,20.13
2023-02-12T01:17:47.259Z,20.43
2023-02-12T01:20:17.649Z,21.07
2023-02-12T01:22:44.789Z,21.57
2023-02-12T01:25:11.968Z,21.17
2023-02-12T01:27:38.771Z,23.00
2023-02-12T01:30:09.087Z,23.33
2023-02-12T01:32:35.748Z,23.87
2023-02-12T01:35:02.454Z,23.50
2023-02-12T01:37:29.086Z,23.87
2023-02-12T01:39:55.792Z,22.77
2023-02-12T01:42:22.455Z,21.50
2023-02-12T01:45:13.951Z,21.60
2023-02-12T01:47:45.391Z,22.50
2023-02-12T01:50:16.476Z,23.47
2023-02-12T01:52:48.591Z,20.40
2023-02-12T01:55:15.938Z,22.37
2023-02-12T01:57:45.882Z,22.10
2023-02-12T02:00:17.805Z,21.07
2023-02-12T02:02:49.250Z,22.07
2023-02-12T02:05:23.009Z,22.30
2023-02-12T02:07:49.638Z,23.03
2023-02-12T02:10:16.666Z,23.03
2023-02-12T02:13:01.809Z,20.87
2023-02-12T02:15:31.890Z,23.70
2023-02-12T02:18:10.978Z,21.70
2023-02-12T02:21:02.425Z,21.33
2023-02-12T02:23:38.200Z,22.23
2023-02-12T02:26:42.153Z,24.40
2023-02-12T02:29:23.191Z,22.87
2023-02-12T02:31:57.435Z,21.10
2023-02-12T02:34:50.028Z,23.03
2023-02-12T02:37:23.319Z,22.07
2023-02-12T02:40:03.878Z,20.73
2023-02-12T02:42:37.007Z,21.60
2023-02-12T02:45:18.776Z,22.90
2023-02-12T02:48:06.812Z,21.57
2023-02-12T02:50:38.333Z,20.00
2023-02-12T02:53:10.463Z,22.13
2023-02-12T02:56:08.576Z,22.40
2023-02-12T02:58:53.099Z,19.83
2023-02-12T03:01:31.203Z,21.17
2023-02-12T03:04:07.969Z,22.60
2023-02-12T03:06:50.348Z,22.63
2023-02-12T03:09:29.310Z,20.07
2023-02-12T03:12:00.367Z,19.13
2023-02-12T03:14:32.671Z,22.27
2023-02-12T03:17:05.272Z,21.60
2023-02-12T03:19:55.923Z,23.00
2023-02-12T03:22:29.513Z,22.60
2023-02-12T03:25:28.748Z,22.10
2023-02-12T03:28:18.321Z,22.10
2023-02-12T03:31:01.404Z,21.97
2023-02-12T03:33:43.152Z,18.87
2023-02-12T03:36:38.341Z,22.37
2023-02-12T03:39:43.177Z,22.53
2023-02-12T03:42:21.779Z,21.43
2023-02-12T03:45:22.492Z,22.23
2023-02-12T03:48:07.168Z,20.93
2023-02-12T03:50:44.707Z,20.33
2023-02-12T03:53:11.667Z,22.40
2023-02-12T03:55:41.180Z,20.63
2023-02-12T03:58:10.336Z,22.27
2023-02-12T04:00:39.044Z,21.03
2023-02-12T04:03:07.082Z,20.70
2023-02-12T04:05:33.855Z,22.47
2023-02-12T04:08:02.359Z,21.57
2023-02-12T04:10:38.127Z,21.33
2023-02-12T04:13:26.364Z,22.97
2023-02-12T04:16:04.150Z,21.03
2023-02-12T04:18:46.455Z,19.20
2023-02-12T04:21:25.221Z,22.53
2023-02-12T04:24:13.358Z,21.07
2023-02-12T04:26:46.170Z,19.10
2023-02-12T04:29:28.834Z,21.53
2023-02-12T04:32:08.452Z,22.63
2023-02-12T04:34:58.901Z,21.40
2023-02-12T04:38:00.859Z,22.13
2023-02-12T04:40:27.803Z,22.33
2023-02-12T04:42:54.744Z,22.90
2023-02-12T04:45:27.826Z,21.60
2023-02-12T04:47:54.755Z,21.93
2023-02-12T04:50:21.744Z,23.07
2023-02-12T04:52:48.858Z,21.53
2023-02-12T04:55:15.831Z,22.20
2023-02-12T04:57:42.483Z,22.60
2023-02-12T05:00:13.067Z,21.40
2023-02-12T05:02:39.714Z,21.67
2023-02-12T05:05:06.785Z,21.20
2023-02-12T05:07:33.421Z,20.80
2023-02-12T05:10:00.319Z,19.63
2023-02-12T05:12:26.977Z,22.30
2023-02-12T05:14:53.583Z,22.63
2023-02-12T05:17:22.884Z,20.90
2023-02-12T05:19:49.666Z,21.37
2023-02-12T05:22:16.415Z,21.93
2023-02-12T05:24:43.242Z,21.07
2023-02-12T05:27:09.842Z,21.70
2023-02-12T05:29:37.088Z,22.50
2023-02-12T05:32:04.578Z,20.33
2023-02-12T05:34:31.826Z,22.67
2023-02-12T05:36:58.477Z,22.23
2023-02-12T05:39:25.356Z,22.30
2023-02-12T05:41:52.064Z,21.73
2023-02-12T05:44:18.801Z,22.57
2023-02-12T05:46:45.526Z,21.70
2023-02-12T05:49:12.359Z,22.27
2023-02-12T05:51:39.314Z,21.53
2023-02-12T05:54:07.264Z,22.77
2023-02-12T05:56:37.232Z,23.90
2023-02-12T05:59:07.296Z,23.33
2023-02-12T06:01:39.192Z,22.43
2023-02-12T06:04:07.835Z,23.73
2023-02-12T06:06:35.281Z,23.43
2023-02-12T06:09:02.467Z,23.03
2023-02-12T06:11:29.251Z,22.80
2023-02-12T06:13:55.895Z,23.90
2023-02-12T06:16:27.745Z,23.70
2023-02-12T06:18:56.464Z,24.03
2023-02-12T06:21:27.187Z,23.03
2023-02-12T06:23:54.072Z,22.77
2023-02-12T06:26:22.139Z,23.90
2023-02-12T06:28:49.223Z,25.33
2023-02-12T06:31:36.822Z,22.07
2023-02-12T06:34:07.181Z,25.17
2023-02-12T06:36:36.202Z,23.00
2023-02-12T06:39:03.606Z,22.27
2023-02-12T06:41:30.673Z,24.07
2023-02-12T06:43:57.709Z,26.27
2023-02-12T06:46:24.831Z,27.07
2023-02-12T06:48:55.582Z,27.20
2023-02-12T06:51:23.501Z,27.57
2023-02-12T06:53:51.505Z,23.90
2023-02-12T06:56:19.678Z,28.17
2023-02-12T06:58:47.955Z,25.10
2023-02-12T07:01:20.222Z,26.53
2023-02-12T07:03:55.435Z,29.00
2023-02-12T07:06:23.264Z,27.13
2023-02-12T07:08:50.330Z,28.53
2023-02-12T07:11:17.651Z,27.97
2023-02-12T07:13:45.370Z,27.27
2023-02-12T07:16:14.746Z,26.60
2023-02-12T07:18:42.479Z,27.00
2023-02-12T07:21:10.192Z,27.67
2023-02-12T07:23:38.255Z,28.03
2023-02-12T07:26:23.376Z,26.03
2023-02-12T07:28:52.002Z,26.73
2023-02-12T07:31:21.363Z,26.50
2023-02-12T07:33:48.965Z,25.83
2023-02-12T07:36:19.135Z,26.23
2023-02-12T07:38:46.732Z,26.17
2023-02-12T07:41:16.570Z,26.17
2023-02-12T07:43:45.214Z,24.73
2023-02-12T07:46:21.712Z,27.70
2023-02-12T07:48:48.776Z,27.33
2023-02-12T07:51:21.746Z,26.53
2023-02-12T07:53:49.408Z,26.90
2023-02-12T07:56:18.839Z,25.93
2023-02-12T07:58:47.132Z,27.53
2023-02-12T08:01:16.678Z,26.77
2023-02-12T08:03:43.814Z,27.20
2023-02-12T08:06:13.016Z,26.80
2023-02-12T08:08:40.048Z,26.73
2023-02-12T08:11:08.618Z,28.63
2023-02-12T08:13:36.556Z,29.23
2023-02-12T08:16:05.562Z,29.90
2023-02-12T08:18:33.495Z,30.37
2023-02-12T08:21:08.841Z,28.37
2023-02-12T08:23:36.088Z,29.90
2023-02-12T08:26:11.897Z,29.87
2023-02-12T08:28:42.658Z,31.03
2023-02-12T08:31:13.492Z,30.53
2023-02-12T08:33:40.170Z,33.10
2023-02-12T08:36:15.107Z,30.17
2023-02-12T08:38:44.285Z,30.63
2023-02-12T08:41:22.608Z,31.07
2023-02-12T08:43:52.455Z,30.73
2023-02-12T08:46:23.504Z,31.13
2023-02-12T08:48:54.395Z,32.33
2023-02-12T08:51:27.033Z,34.10
2023-02-12T08:53:56.382Z,34.73
2023-02-12T08:56:24.086Z,34.97
2023-02-12T08:58:51.268Z,36.10
2023-02-12T09:01:23.641Z,37.97
2023-02-12T09:03:53.890Z,35.97
2023-02-12T09:06:22.463Z,37.63
2023-02-12T09:08:49.706Z,36.00
2023-02-12T09:11:20.636Z,36.00
2023-02-12T09:13:49.449Z,36.03
2023-02-12T09:16:17.863Z,33.83
2023-02-12T09:18:45.292Z,32.70
2023-02-12T09:21:16.549Z,31.50
2023-02-12T09:23:44.305Z,28.80
2023-02-12T09:26:15.123Z,29.00
2023-02-12T09:28:42.066Z,27.80
2023-02-12T09:31:15.020Z,30.27
2023-02-12T09:33:42.356Z,30.57
2023-02-12T09:36:12.120Z,25.33
2023-02-12T09:38:38.949Z,24.20
2023-02-12T09:41:48.005Z,23.63
2023-02-12T09:44:40.624Z,20.50
2023-02-12T09:47:15.717Z,20.03
2023-02-12T09:50:13.505Z,18.77
2023-02-12T09:52:40.982Z,16.80
2023-02-12T09:55:14.712Z,17.60
2023-02-12T09:57:42.337Z,16.03
2023-02-12T10:00:31.563Z,13.87
2023-02-12T10:03:05.299Z,14.27
2023-02-12T10:05:38.184Z,11.23
2023-02-12T10:08:24.951Z,10.27
2023-02-12T10:10:53.366Z,13.37
2023-02-12T10:13:34.963Z,8.40
2023-02-12T10:16:32.090Z,7.57
2023-02-12T10:19:01.557Z,6.90
2023-02-12T10:21:50.330Z,7.10
2023-02-12T10:24:23.899Z,6.60
2023-02-12T10:26:55.822Z,8.97
2023-02-12T10:29:25.752Z,9.20
2023-02-12T10:32:03.314Z,9.17
2023-02-12T10:34:35.438Z,8.97
2023-02-12T10:37:40.296Z,10.37
2023-02-12T10:40:30.218Z,10.10
2023-02-12T10:42:58.716Z,10.33
2023-02-12T10:45:37.829Z,9.53
2023-02-12T10:48:07.030Z,9.23
2023-02-12T10:51:07.226Z,9.63
2023-02-12T10:53:43.086Z,8.60
2023-02-12T10:56:23.073Z,8.43
2023-02-12T10:58:59.529Z,8.43
2023-02-12T11:01:36.672Z,8.27
2023-02-12T11:04:27.002Z,8.03
2023-02-12T11:07:04.594Z,7.70
2023-02-12T11:09:45.226Z,7.53
2023-02-12T11:12:48.255Z,5.47
2023-02-12T11:15:25.208Z,4.93
2023-02-12T11:18:05.678Z,4.80
2023-02-12T11:20:50.519Z,5.60
2023-02-12T11:23:25.886Z,5.77
2023-02-12T11:26:05.498Z,5.13
2023-02-12T11:28:35.906Z,4.90
2023-02-12T11:31:20.458Z,5.10
2023-02-12T11:33:48.356Z,5.63
2023-02-12T11:36:24.596Z,5.53
2023-02-12T11:38:56.726Z,5.27
2023-02-12T11:41:39.281Z,5.87
2023-02-12T11:44:18.315Z,6.20
2023-02-12T11:47:17.568Z,5.47
2023-02-12T11:49:57.081Z,6.90
2023-02-12T11:52:28.284Z,5.20
2023-02-12T11:55:02.864Z,5.10
2023-02-12T11:57:40.079Z,5.43
2023-02-12T12:00:36.952Z,5.40
2023-02-12T12:03:33.041Z,5.43
2023-02-12T12:06:23.360Z,5.50
2023-02-12T12:08:53.110Z,4.87
2023-02-12T12:11:28.920Z,6.43
2023-02-12T12:14:29.907Z,5.20
2023-02-12T12:17:24.852Z,4.50
2023-02-12T12:20:04.366Z,4.93
2023-02-12T12:23:02.280Z,4.87
2023-02-12T12:25:31.659Z,3.97
2023-02-12T12:28:20.550Z,3.90
2023-02-12T12:30:53.856Z,3.90
2023-02-12T12:33:40.817Z,3.43
2023-02-12T12:36:13.781Z,3.87
2023-02-12T12:39:21.456Z,3.80
2023-02-12T12:42:52.657Z,3.50
2023-02-12T12:46:03.826Z,3.27
2023-02-12T12:49:03.754Z,3.13
2023-02-12T12:51:36.394Z,2.67
2023-02-12T12:54:44.416Z,2.83
2023-02-12T12:57:32.273Z,3.13
2023-02-12T13:00:24.333Z,2.70
2023-02-12T13:02:57.451Z,2.63
2023-02-12T13:05:30.674Z,3.30
2023-02-12T13:08:19.103Z,2.90
2023-02-12T13:10:50.621Z,3.10
2023-02-12T13:13:43.391Z,2.80
2023-02-12T13:16:21.821Z,3.10
2023-02-12T13:19:15.720Z,3.07
2023-02-12T13:22:21.243Z,3.30
2023-02-12T13:24:53.129Z,3.30
2023-02-12T13:27:27.346Z,2.90
2023-02-12T13:30:17.044Z,2.97
2023-02-12T13:32:55.693Z,3.60
2023-02-12T13:35:24.886Z,3.10
2023-02-12T13:37:55.742Z,3.10
2023-02-12T13:40:28.011Z,3.30
2023-02-12T13:43:16.528Z,2.83
2023-02-12T13:45:55.647Z,3.37
2023-02-12T13:48:29.128Z,2.90
2023-02-12T13:51:31.203Z,2.93
2023-02-12T13:54:09.892Z,2.90
2023-02-12T13:56:47.037Z,2.60
2023-02-12T13:59:32.291Z,2.70
2023-02-12T14:02:08.678Z,3.07
2023-02-12T14:04:55.298Z,2.67
2023-02-12T14:07:23.068Z,3.23
2023-02-12T14:09:49.854Z,2.50
2023-02-12T14:12:18.339Z,2.63
2023-02-12T14:14:48.493Z,2.83
2023-02-12T14:17:33.267Z,2.60
2023-02-12T14:20:21.685Z,2.33
2023-02-12T14:22:49.382Z,3.10
2023-02-12T14:25:28.872Z,2.40
2023-02-12T14:28:34.535Z,2.30
2023-02-12T14:31:19.929Z,2.70
2023-02-12T14:33:48.903Z,2.67
2023-02-12T14:36:40.201Z,2.93
2023-02-12T14:39:24.787Z,2.60
2023-02-12T14:42:15.886Z,2.10
2023-02-12T14:44:59.071Z,2.20
2023-02-12T14:47:28.842Z,2.13
2023-02-12T14:50:05.710Z,2.60
2023-02-12T14:52:38.335Z,2.50
2023-02-12T14:55:20.759Z,2.70
2023-02-12T14:57:48.025Z,2.37
2023-02-12T15:00:41.751Z,2.20
2023-02-12T15:03:15.712Z,2.00
2023-02-12T15:05:51.076Z,2.10
2023-02-12T15:08:39.903Z,2.27
2023-02-12T15:11:21.993Z,2.33
2023-02-12T15:13:59.928Z,2.53
2023-02-12T15:16:48.253Z,2.43
2023-02-12T15:19:21.049Z,2.30
2023-02-12T15:21:48.398Z,2.60
2023-02-12T15:24:23.476Z,2.47
2023-02-12T15:26:53.394Z,2.40
2023-02-12T15:29:28.326Z,3.10
2023-02-12T15:32:01.658Z,2.43
2023-02-12T15:34:31.862Z,2.67
2023-02-12T15:37:01.153Z,2.50
2023-02-12T15:39:43.621Z,2.30
2023-02-12T15:42:42.666Z,2.93
2023-02-12T15:45:15.293Z,3.10
2023-02-12T15:47:43.547Z,2.83
2023-02-12T15:50:15.140Z,3.20
2023-02-12T15:52:44.595Z,2.93
2023-02-12T15:55:17.814Z,2.87
2023-02-12T15:57:53.990Z,3.13
2023-02-12T16:00:41.889Z,3.03
2023-02-12T16:03:34.160Z,2.90
2023-02-12T16:06:11.522Z,3.10
2023-02-12T16:08:39.277Z,2.70
2023-02-12T16:11:13.834Z,3.07
2023-02-12T16:14:05.668Z,3.40
2023-02-12T16:16:48.795Z,2.80
2023-02-12T16:19:32.910Z,2.97
2023-02-12T16:22:05.802Z,3.30
2023-02-12T16:24:37.075Z,3.67
2023-02-12T16:27:15.502Z,3.87
2023-02-12T16:29:54.424Z,3.57
2023-02-12T16:32:43.050Z,3.93
2023-02-12T16:35:09.744Z,3.97
2023-02-12T16:37:36.431Z,3.97
2023-02-12T16:40:21.883Z,4.63
2023-02-12T16:42:48.642Z,4.43
2023-02-12T16:45:42.452Z,4.30
2023-02-12T16:48:18.697Z,4.77
2023-02-12T16:50:49.231Z,4.27
2023-02-12T16:53:31.381Z,4.33
2023-02-12T16:55:59.838Z,3.83
2023-02-12T16:58:27.072Z,4.70
2023-02-12T17:00:55.840Z,4.90
2023-02-12T17:03:24.301Z,3.80
2023-02-12T17:05:52.475Z,3.97
2023-02-12T17:08:22.522Z,4.80
2023-02-12T17:10:49.771Z,4.53
2023-02-12T17:13:19.117Z,3.87
2023-02-12T17:15:47.906Z,4.20
2023-02-12T17:18:15.330Z,5.03
2023-02-12T17:20:42.748Z,4.57
2023-02-12T17:23:11.065Z,4.13
2023-02-12T17:25:40.512Z,3.80
2023-02-12T17:28:08.745Z,4.10
2023-02-12T17:30:37.347Z,3.93
2023-02-12T17:33:04.315Z,4.13
2023-02-12T17:35:31.137Z,4.23
2023-02-12T17:37:57.875Z,4.20
2023-02-12T17:40:24.675Z,5.23
2023-02-12T17:42:51.428Z,4.60
2023-02-12T17:45:19.101Z,5.13
2023-02-12T17:47:46.486Z,4.10
2023-02-12T17:50:15.079Z,4.40
2023-02-12T17:52:42.190Z,4.70
2023-02-12T17:55:11.493Z,5.03
2023-02-12T17:57:38.284Z,5.33
2023-02-12T18:00:21.106Z,5.23
2023-02-12T18:02:50.760Z,6.80
2023-02-12T18:05:17.714Z,6.90
2023-02-12T18:07:47.320Z,5.57
2023-02-12T18:10:14.190Z,6.53
2023-02-12T18:12:42.628Z,6.50
2023-02-12T18:15:10.626Z,5.43
2023-02-12T18:17:37.581Z,6.40
2023-02-12T18:20:05.082Z,6.07
2023-02-12T18:22:35.685Z,6.37
2023-02-12T18:25:02.497Z,6.50
2023-02-12T18:27:29.320Z,6.87
2023-02-12T18:29:57.244Z,6.30
2023-02-12T18:32:24.470Z,6.30
2023-02-12T18:34:51.402Z,7.23
2023-02-12T18:37:20.982Z,6.83
2023-02-12T18:39:47.795Z,7.07
2023-02-12T18:42:14.541Z,7.83
2023-02-12T18:44:44.231Z,8.93
2023-02-12T18:47:11.942Z,8.23
2023-02-12T18:49:40.718Z,7.37
2023-02-12T18:52:07.619Z,8.67
2023-02-12T18:54:34.945Z,9.63
2023-02-12T18:57:01.733Z,8.50
2023-02-12T18:59:29.038Z,9.50
2023-02-12T19:01:56.284Z,7.07
2023-02-12T19:04:24.263Z,7.30
2023-02-12T19:06:54.266Z,8.13
2023-02-12T19:09:25.088Z,9.17
2023-02-12T19:11:56.633Z,7.93
2023-02-12T19:14:24.809Z,8.70
2023-02-12T19:16:52.235Z,9.33
2023-02-12T19:19:21.039Z,8.87
2023-02-12T19:21:47.908Z,8.60
2023-02-12T19:24:15.446Z,8.27
2023-02-12T19:26:46.871Z,9.00
2023-02-12T19:29:13.860Z,8.70
2023-02-12T19:31:44.509Z,8.07
2023-02-12T19:34:23.232Z,10.07
2023-02-12T19:36:50.531Z,8.40
2023-02-12T19:39:20.710Z,15.13
2023-02-12T19:41:47.837Z,10.93
2023-02-12T19:44:18.916Z,10.53
2023-02-12T19:46:47.028Z,9.83
2023-02-12T19:49:17.562Z,10.13
2023-02-12T19:51:45.030Z,8.03
2023-02-12T19:54:14.226Z,9.17
2023-02-12T19:56:41.716Z,9.10
2023-02-12T19:59:11.094Z,8.93
2023-02-12T20:01:38.147Z,8.80
2023-02-12T20:04:05.227Z,8.97
2023-02-12T20:06:37.166Z,9.67
2023-02-12T20:09:06.847Z,8.40
2023-02-12T20:11:37.371Z,8.77
2023-02-12T20:14:05.858Z,9.30
2023-02-12T20:16:37.982Z,9.33
2023-02-12T20:19:12.596Z,9.67
2023-02-12T20:21:40.172Z,9.40
2023-02-12T20:24:07.420Z,8.87
2023-02-12T20:26:34.671Z,9.17
2023-02-12T20:29:04.847Z,10.13
2023-02-12T20:31:34.501Z,9.43
2023-02-12T20:34:06.832Z,9.40
2023-02-12T20:36:36.698Z,9.97
2023-02-12T20:39:06.873Z,10.37
2023-02-12T20:41:37.425Z,9.50
2023-02-12T20:44:07.080Z,9.73
2023-02-12T20:46:36.177Z,10.87
2023-02-12T20:49:03.255Z,9.93
2023-02-12T20:51:29.954Z,12.43
2023-02-12T20:53:56.827Z,11.57
2023-02-12T20:56:28.965Z,11.40
2023-02-12T20:58:56.294Z,11.13
2023-02-12T21:01:27.893Z,11.00
2023-02-12T21:03:55.547Z,10.33
2023-02-12T21:06:23.662Z,11.73
2023-02-12T21:08:54.007Z,11.60
2023-02-12T21:11:23.871Z,10.60
2023-02-12T21:13:59.380Z,11.13
2023-02-12T21:16:31.028Z,11.33
2023-02-12T21:18:57.931Z,12.03
2023-02-12T21:21:33.733Z,11.30
2023-02-12T21:24:02.036Z,11.50
2023-02-12T21:26:30.185Z,10.33
2023-02-12T21:28:59.225Z,10.63
2023-02-12T21:31:35.108Z,10.17
2023-02-12T21:34:04.992Z,10.87
2023-02-12T21:36:34.750Z,10.83
2023-02-12T21:39:02.043Z,12.40
2023-02-12T21:41:31.471Z,10.90
2023-02-12T21:44:00.419Z,10.93
2023-02-12T21:46:28.656Z,11.67
2023-02-12T21:48:56.176Z,11.80
2023-02-12T21:51:32.291Z,12.47
2023-02-12T21:54:01.669Z,11.43
2023-02-12T21:56:28.775Z,11.20
2023-02-12T21:58:57.627Z,12.67
2023-02-12T22:01:32.148Z,13.67
2023-02-12T22:04:00.991Z,13.90
2023-02-12T22:06:27.841Z,14.00
2023-02-12T22:08:56.318Z,13.77
2023-02-12T22:11:23.512Z,14.50
2023-02-12T22:13:50.307Z,14.70
2023-02-12T22:16:19.994Z,15.43
2023-02-12T22:18:48.151Z,15.50
2023-02-12T22:21:16.760Z,16.80
2023-02-12T22:23:45.009Z,15.40
2023-02-12T22:26:13.171Z,16.00
2023-02-12T22:28:45.863Z,16.13
2023-02-12T22:31:14.645Z,17.00
2023-02-12T22:33:41.382Z,16.47
2023-02-12T22:36:09.482Z,17.40
2023-02-12T22:38:38.099Z,16.33
2023-02-12T22:41:06.307Z,15.47
2023-02-12T22:43:34.559Z,18.40
2023-02-12T22:46:01.640Z,19.37
2023-02-12T22:48:28.908Z,17.87
2023-02-12T22:50:56.436Z,17.47
2023-02-12T22:53:24.142Z,18.00
2023-02-12T22:55:51.551Z,18.50
2023-02-12T22:58:18.352Z,18.77
2023-02-12T23:00:45.441Z,18.93
2023-02-12T23:03:12.105Z,18.87
2023-02-12T23:05:39.274Z,18.33
2023-02-12T23:08:06.864Z,20.53
2023-02-12T23:10:33.965Z,18.93
2023-02-12T23:13:02.897Z,20.07
2023-02-12T23:15:30.605Z,21.00
2023-02-12T23:17:57.374Z,20.00
2023-02-12T23:20:24.073Z,18.47
2023-02-12T23:22:50.773Z,17.67
2023-02-12T23:25:17.509Z,18.13
2023-02-12T23:27:44.169Z,18.90
2023-02-12T23:30:11.365Z,18.63
2023-02-12T23:32:38.034Z,18.50
2023-02-12T23:35:08.026Z,17.73
2023-02-12T23:37:34.712Z,19.50
2023-02-12T23:40:01.340Z,18.67
2023-02-12T23:42:27.966Z,18.23
2023-02-12T23:44:56.771Z,18.27
2023-02-12T23:47:23.589Z,19.30
2023-02-12T23:49:50.203Z,19.07
2023-02-12T23:52:16.851Z,19.23
2023-02-12T23:54:43.567Z,19.07
2023-02-12T23:57:10.212Z,17.67
2023-02-12T23:59:37.019Z,17.70
